Time;durP1;ratioP1;P1;durP2;ratioP2;P2;SDS_P1;SDS_P2;PMS_P1;PMS_P2;Temp;Humidity;BMP_temperature;BMP_pressure;BME280_temperature;BME280_humidity;BME280_pressure;Samples;Min_cycle;Max_cycle;Signal;HPM_P1;HPM_P2
2023/07/07 00:01:01;;;;;;;;;;;;;;;23.10;72.02;99692.84;6106613;23;19931;-92
2023/07/07 00:03:27;;;;;;;;;;;;;;;23.19;72.02;99702.50;6110335;23;20063;-91
2023/07/07 00:05:53;;;;;;;;;;;;;;;23.19;72.07;99704.47;6110951;23;19920;-96
2023/07/07 00:08:19;;;;;;;;;;;;;;;23.14;72.13;99697.25;6136767;23;19944;-93
2023/07/07 00:10:47;;;;;;;;;;;;;;;23.13;72.17;99704.03;6135005;23;19925;-92
2023/07/07 00:13:14;;;;;;;;;;;;;;;23.15;72.19;99703.66;6132771;23;19920;-93
2023/07/07 00:15:44;;;;;;;;;;;;;;;23.13;72.33;99708.81;6133361;23;19920;-93
2023/07/07 00:18:35;;;;;;;;;;;;;;;23.11;72.43;99706.44;6128872;23;19929;-91
2023/07/07 00:21:02;;;;;;;;;;;;;;;23.13;72.41;99701.25;6081171;23;20390;-95
2023/07/07 00:23:37;;;;;;;;;;;;;;;23.12;72.33;99710.81;6105972;23;19924;-94
2023/07/07 00:26:07;;;;;;;;;;;;;;;23.10;72.71;99707.59;6081145;23;19999;-93
2023/07/07 00:28:33;;;;;;;;;;;;;;;23.11;72.45;99700.84;6104052;23;19921;-94
2023/07/07 00:30:59;;;;;;;;;;;;;;;23.09;72.69;99706.00;6079821;23;19990;-94
2023/07/07 00:33:25;;;;;;;;;;;;;;;23.07;72.90;99708.38;6105291;23;19920;-95
2023/07/07 00:39:12;;;;;;;;;;;;;;;23.05;72.93;99707.19;6124490;23;19956;-90
2023/07/07 00:41:39;;;;;;;;;;;;;;;23.03;73.14;99701.19;6099902;23;19921;-93
2023/07/07 00:44:11;;;;;;;;;;;;;;;22.98;73.36;99708.72;6075419;23;19928;-96
2023/07/07 00:46:40;;;;;;;;;;;;;;;22.90;73.87;99698.66;6128591;23;20036;-95
2023/07/07 00:49:11;;;;;;;;;;;;;;;22.86;74.05;99692.28;6138342;23;19979;-95
2023/07/07 00:51:40;;;;;;;;;;;;;;;22.86;73.89;99688.69;6164225;23;19927;-95
2023/07/07 00:54:07;;;;;;;;;;;;;;;22.79;74.19;99697.78;6130675;23;19971;-94
2023/07/07 00:56:38;;;;;;;;;;;;;;;22.78;74.45;99687.84;6165709;23;19920;-95
2023/07/07 00:59:08;;;;;;;;;;;;;;;22.75;74.54;99678.25;6140632;23;19943;-95
2023/07/07 01:01:35;;;;;;;;;;;;;;;22.73;74.52;99682.63;6171431;23;19927;-95
2023/07/07 01:04:02;;;;;;;;;;;;;;;22.68;74.65;99672.63;6138308;23;19943;-93
2023/07/07 01:06:37;;;;;;;;;;;;;;;22.65;74.82;99664.22;6162997;23;20007;-93
2023/07/07 01:09:06;;;;;;;;;;;;;;;22.60;74.96;99662.59;6140358;23;19948;-92
2023/07/07 01:11:33;;;;;;;;;;;;;;;22.58;75.05;99669.75;6139431;23;19954;-92
2023/07/07 01:14:05;;;;;;;;;;;;;;;22.55;75.41;99671.34;6163770;23;19926;-95
2023/07/07 01:16:43;;;;;;;;;;;;;;;22.49;75.36;99664.50;6164265;23;19920;-92
2023/07/07 01:19:25;;;;;;;;;;;;;;;22.42;75.98;99670.03;6164401;23;19954;-90
2023/07/07 01:21:50;;;;;;;;;;;;;;;22.39;76.27;99671.59;6138929;23;19920;-93
2023/07/07 01:24:36;;;;;;;;;;;;;;;22.41;76.33;99663.63;6145798;23;19932;-93
2023/07/07 01:27:20;;;;;;;;;;;;;;;22.40;75.95;99656.47;6163532;23;19908;-93
2023/07/07 01:29:55;;;;;;;;;;;;;;;22.38;76.50;99655.25;6163354;23;19924;-91
2023/07/07 01:32:29;;;;;;;;;;;;;;;22.33;76.36;99653.63;6189025;23;19911;-93
2023/07/07 01:34:59;;;;;;;;;;;;;;;22.31;76.89;99646.81;6160518;23;19905;-94
2023/07/07 01:37:26;;;;;;;;;;;;;;;22.27;77.05;99642.03;6189064;23;19920;-95
2023/07/07 01:39:53;;;;;;;;;;;;;;;22.27;76.99;99635.66;6163007;23;19928;-94
2023/07/07 01:42:21;;;;;;;;;;;;;;;22.27;76.84;99628.09;6187982;23;19909;-92
2023/07/07 01:45:03;;;;;;;;;;;;;;;22.28;76.98;99626.09;6164009;23;19911;-92
2023/07/07 01:47:33;;;;;;;;;;;;;;;22.24;77.22;99623.28;6164294;23;19967;-93
2023/07/07 01:50:02;;;;;;;;;;;;;;;22.23;77.28;99610.56;6186262;23;19924;-94
2023/07/07 01:52:41;;;;;;;;;;;;;;;22.19;77.48;99609.72;6142010;23;19916;-93
2023/07/07 01:55:15;;;;;;;;;;;;;;;22.23;77.63;99596.63;6141716;23;19920;-92
2023/07/07 01:57:43;;;;;;;;;;;;;;;22.24;77.54;99601.00;6142500;23;20374;-93
2023/07/07 02:00:10;;;;;;;;;;;;;;;22.27;77.75;99589.09;6140149;23;19916;-93
2023/07/07 02:02:43;;;;;;;;;;;;;;;22.32;77.30;99589.94;6189841;23;19943;-93
2023/07/07 02:05:10;;;;;;;;;;;;;;;22.35;77.44;99595.56;6163162;23;19920;-93
2023/07/07 02:07:38;;;;;;;;;;;;;;;22.36;77.53;99590.78;6139545;23;19972;-92
2023/07/07 02:10:04;;;;;;;;;;;;;;;22.40;77.45;99600.75;6164024;23;19924;-94
2023/07/07 02:12:30;;;;;;;;;;;;;;;22.42;77.44;99600.38;6138309;23;19927;-92
2023/07/07 02:14:56;;;;;;;;;;;;;;;22.39;77.55;99601.94;6139874;23;19924;-93
2023/07/07 02:17:21;;;;;;;;;;;;;;;22.42;77.57;99601.19;6136859;23;19928;-92
2023/07/07 02:19:47;;;;;;;;;;;;;;;22.44;77.46;99598.00;6162523;23;19999;-94
2023/07/07 02:22:13;;;;;;;;;;;;;;;22.48;77.48;99601.59;6138954;23;19920;-93
2023/07/07 02:24:39;;;;;;;;;;;;;;;22.46;77.66;99601.19;6138365;23;19921;-94
2023/07/07 02:27:07;;;;;;;;;;;;;;;22.50;77.42;99602.81;6139228;23;19920;-92
2023/07/07 02:29:33;;;;;;;;;;;;;;;22.51;77.54;99609.19;6138604;23;20358;-93
2023/07/07 02:31:59;;;;;;;;;;;;;;;22.54;77.28;99602.84;6139530;23;19923;-94
2023/07/07 02:34:24;;;;;;;;;;;;;;;22.60;77.57;99606.06;6142594;23;19960;-94
2023/07/07 02:36:52;;;;;;;;;;;;;;;22.60;77.56;99603.28;6138641;23;19947;-94
2023/07/07 02:39:18;;;;;;;;;;;;;;;22.61;77.58;99600.09;6188604;23;19916;-93
2023/07/07 02:41:44;;;;;;;;;;;;;;;22.67;77.59;99608.91;6132816;23;19948;-93
2023/07/07 02:44:09;;;;;;;;;;;;;;;22.72;77.04;99619.72;6137791;23;19923;-94
2023/07/07 02:46:36;;;;;;;;;;;;;;;22.78;77.15;99629.31;6140608;23;19916;-94
2023/07/07 02:49:02;;;;;;;;;;;;;;;22.88;76.91;99616.59;6168634;23;19920;-92
2023/07/07 02:51:28;;;;;;;;;;;;;;;22.95;76.59;99616.69;6147062;23;20011;-92
2023/07/07 02:53:55;;;;;;;;;;;;;;;23.03;76.09;99626.69;6169824;23;20476;-93
2023/07/07 02:56:21;;;;;;;;;;;;;;;23.06;76.02;99617.56;6146996;23;19948;-94
2023/07/07 02:58:47;;;;;;;;;;;;;;;23.13;75.90;99614.00;6125564;23;19978;-94
2023/07/07 03:01:14;;;;;;;;;;;;;;;23.18;75.93;99614.44;6145342;23;20342;-96
2023/07/07 03:03:42;;;;;;;;;;;;;;;23.27;75.73;99616.06;6143366;23;19920;-95
2023/07/07 03:06:33;;;;;;;;;;;;;;;23.34;75.29;99605.72;6166702;23;19968;-95
2023/07/07 03:09:11;;;;;;;;;;;;;;;23.44;75.32;99612.53;6195271;23;19926;-95
2023/07/07 03:12:22;;;;;;;;;;;;;;;23.50;74.91;99612.97;6130028;23;19920;-95
2023/07/07 03:15:50;;;;;;;;;;;;;;;23.58;74.58;99612.59;6131878;23;19959;-95
2023/07/07 03:18:41;;;;;;;;;;;;;;;23.68;74.39;99631.41;6151017;23;19924;-95
2023/07/07 03:21:31;;;;;;;;;;;;;;;;;;;;;
2023/07/07 03:24:32;;;;;;;;;;;;;;;23.82;74.02;99627.06;6193481;23;19927;-96
2023/07/07 03:27:05;;;;;;;;;;;;;;;23.88;74.05;99629.06;6112306;23;20317;-95
2023/07/07 03:29:38;;;;;;;;;;;;;;;23.94;73.84;99628.66;6087333;23;19968;-93
2023/07/07 03:32:04;;;;;;;;;;;;;;;24.03;73.21;99635.47;6092099;23;19924;-93
2023/07/07 03:34:36;;;;;;;;;;;;;;;24.08;72.94;99640.69;6089822;23;19948;-93
2023/07/07 03:37:38;;;;;;;;;;;;;;;;;;;;;
2023/07/07 03:40:15;;;;;;;;;;;;;;;24.10;72.41;99617.91;6016656;23;19922;-95
2023/07/07 03:42:52;;;;;;;;;;;;;;;24.11;71.91;99616.75;5970085;23;19922;-94
2023/07/07 03:45:18;;;;;;;;;;;;;;;24.05;72.01;99621.91;5968721;23;19926;-95
2023/07/07 03:47:45;;;;;;;;;;;;;;;24.03;72.08;99624.28;5946574;23;20005;-93
2023/07/07 03:50:13;;;;;;;;;;;;;;;24.01;72.20;99628.69;5946004;23;19922;-94
2023/07/07 03:52:40;;;;;;;;;;;;;;;23.92;72.12;99637.44;5967237;23;19926;-94
2023/07/07 03:55:18;;;;;;;;;;;;;;;23.91;72.52;99631.06;5990173;23;20376;-93
2023/07/07 04:01:17;;;;;;;;;;;;;;;;;;;;;
2023/07/07 04:04:03;;;;;;;;;;;;;;;23.96;72.41;99641.03;5913542;24;19958;-93
2023/07/07 04:06:29;;;;;;;;;;;;;;;23.97;72.50;99623.09;5911715;24;19996;-94
2023/07/07 04:08:58;;;;;;;;;;;;;;;23.95;72.68;99613.53;5911909;24;19923;-93
2023/07/07 04:11:24;;;;;;;;;;;;;;;24.01;72.75;99617.53;5908571;24;20468;-95
2023/07/07 04:13:52;;;;;;;;;;;;;;;24.04;72.63;99617.53;5910245;24;20006;-94
2023/07/07 04:16:24;;;;;;;;;;;;;;;24.12;72.80;99610.75;5929097;23;19988;-93
2023/07/07 04:18:56;;;;;;;;;;;;;;;24.25;72.26;99619.53;5997596;23;19938;-92
2023/07/07 04:21:42;;;;;;;;;;;;;;;24.38;72.44;99617.94;5952479;23;20013;-94
2023/07/07 04:24:14;;;;;;;;;;;;;;;24.52;72.06;99621.97;5952081;23;19929;-93
2023/07/07 04:30:33;;;;;;;;;;;;;;;24.70;69.85;99610.75;5994737;23;20376;-92
2023/07/07 04:33:02;;;;;;;;;;;;;;;24.66;70.28;99609.97;6029523;23;19921;-94
2023/07/07 04:36:14;;;;;;;;;;;;;;;24.70;70.60;99622.78;6032612;23;19929;-94
2023/07/07 04:42:36;;;;;;;;;;;;;;;24.70;70.09;99621.94;6052914;23;19955;-93
2023/07/07 04:45:10;;;;;;;;;;;;;;;24.75;70.35;99621.56;6031260;23;19937;-95
2023/07/07 04:47:41;;;;;;;;;;;;;;;24.82;69.74;99627.91;5983977;23;19960;-92
2023/07/07 04:50:09;;;;;;;;;;;;;;;24.85;70.50;99620.72;6031636;23;19922;-93
2023/07/07 04:56:38;;;;;;;;;;;;;;;24.95;69.80;99633.09;6015430;23;19945;-95
2023/07/07 04:59:07;;;;;;;;;;;;;;;24.91;69.75;99635.13;6018029;23;19909;-95
2023/07/07 05:07:52;;;;;;;;;;;;;;;25.12;69.46;99614.72;6215095;23;19905;-96
2023/07/07 05:10:38;;;;;;;;;;;;;;;;;;;;;
2023/07/07 05:13:36;;;;;;;;;;;;;;;25.17;68.66;99611.50;6165742;23;20393;-94
2023/07/07 05:16:03;;;;;;;;;;;;;;;25.13;68.43;99608.69;6144050;23;19924;-93
2023/07/07 05:19:04;;;;;;;;;;;;;;;;;;;;;
2023/07/07 05:21:43;;;;;;;;;;;;;;;25.26;68.86;99614.66;6058728;23;20450;-94
2023/07/07 05:24:20;;;;;;;;;;;;;;;25.28;68.60;99623.44;6057896;23;19996;-95
2023/07/07 05:26:49;;;;;;;;;;;;;;;25.33;68.55;99620.25;6062173;23;19922;-95
2023/07/07 05:29:15;;;;;;;;;;;;;;;25.29;67.95;99614.63;6035398;23;19941;-93
2023/07/07 05:32:03;;;;;;;;;;;;;;;25.38;68.08;99616.22;6084462;23;19960;-94
2023/07/07 05:34:29;;;;;;;;;;;;;;;25.54;67.64;99608.94;6040302;23;19933;-94
2023/07/07 05:36:55;;;;;;;;;;;;;;;25.67;67.38;99600.88;6088516;23;19921;-95
2023/07/07 05:44:19;;;;;;;;;;;;;;;25.84;66.55;99570.41;5838123;24;19908;-95
2023/07/07 05:51:00;;;;;;;;;;;;;;;25.74;66.58;99577.63;5792442;24;19936;-95
2023/07/07 05:57:45;;;;;;;;;;;;;;;25.66;66.84;99587.28;5702826;25;19926;-94
2023/07/07 06:01:16;;;;;;;;;;;;;;;;;;;;;
2023/07/07 06:04:22;;;;;;;;;;;;;;;;;;;;;
2023/07/07 06:07:11;;;;;;;;;;;;;;;25.62;66.97;99597.72;5695386;24;19926;-93
2023/07/07 06:09:58;;;;;;;;;;;;;;;;;;;;;
2023/07/07 06:13:19;;;;;;;;;;;;;;;;;;;;;
2023/07/07 06:17:16;;;;;;;;;;;;;;;25.65;67.55;99572.47;5800405;24;19932;-94
2023/07/07 06:20:17;;;;;;;;;;;;;;;25.73;67.19;99557.25;5769470;24;20000;-93
2023/07/07 06:22:43;;;;;;;;;;;;;;;25.76;66.84;99573.22;5798192;24;19951;-94
2023/07/07 06:25:54;;;;;;;;;;;;;;;25.70;66.77;99588.06;5777094;24;19925;-95
2023/07/07 06:28:04;;;;;;;;;;;;;;;25.67;66.92;99589.69;5837962;24;20015;-90
2023/07/07 06:31:02;;;;;;;;;;;;;;;25.77;67.48;99580.41;5821519;24;19924;-96
2023/07/07 06:37:55;;;;;;;;;;;;;;;;;;;;;
2023/07/07 06:41:39;;;;;;;;;;;;;;;25.97;65.52;99591.91;5862669;24;20054;-96
2023/07/07 06:47:47;;;;;;;;;;;;;;;26.12;65.71;99583.41;5733028;25;19925;-96
2023/07/07 06:50:56;;;;;;;;;;;;;;;26.13;65.68;99574.59;5746897;24;19930;-96
2023/07/07 06:53:59;;;;;;;;;;;;;;;26.15;65.02;99574.19;5768810;24;19951;-95
2023/07/07 06:56:28;;;;;;;;;;;;;;;26.13;66.15;99571.00;5771217;24;19925;-84
2023/07/07 06:58:54;;;;;;;;;;;;;;;26.06;65.10;99577.47;5793723;24;19928;-91
2023/07/07 07:01:20;;;;;;;;;;;;;;;25.99;65.90;99581.13;5847034;24;19935;-93
2023/07/07 07:03:46;;;;;;;;;;;;;;;25.91;66.52;99587.16;5852145;24;20615;-93
2023/07/07 07:06:12;;;;;;;;;;;;;;;25.81;66.49;99588.03;5847984;24;19932;-93
2023/07/07 07:08:38;;;;;;;;;;;;;;;25.71;66.38;99598.84;5850089;24;19924;-95
2023/07/07 07:11:06;;;;;;;;;;;;;;;25.66;66.63;99612.47;5844891;24;20314;-94
2023/07/07 07:13:33;;;;;;;;;;;;;;;25.68;66.74;99612.88;5854956;24;19924;-90
2023/07/07 07:16:42;;;;;;;;;;;;;;;25.67;67.72;99611.28;6109884;22;19936;-93
2023/07/07 07:19:08;;;;;;;;;;;;;;;25.66;68.48;99615.28;6186441;23;19933;-92
2023/07/07 07:21:49;;;;;;;;;;;;;;;25.60;69.04;99628.13;6190761;23;19904;-93
2023/07/07 07:24:17;;;;;;;;;;;;;;;25.52;69.18;99632.94;6160100;23;19907;-93
2023/07/07 07:26:44;;;;;;;;;;;;;;;25.47;69.14;99650.19;6186319;23;19924;-92
2023/07/07 07:29:14;;;;;;;;;;;;;;;25.43;69.27;99653.00;6116618;23;19921;-92
2023/07/07 07:31:40;;;;;;;;;;;;;;;25.42;69.63;99670.19;6144401;23;20033;-92
2023/07/07 07:34:22;;;;;;;;;;;;;;;25.36;70.22;99675.38;6068044;23;20462;-94
2023/07/07 07:36:48;;;;;;;;;;;;;;;25.41;70.40;99682.59;6111753;23;19952;-94
2023/07/07 07:39:15;;;;;;;;;;;;;;;25.44;69.84;99687.38;6081554;23;19917;-92
2023/07/07 07:41:42;;;;;;;;;;;;;;;25.41;69.78;99688.19;6060300;23;19968;-92
2023/07/07 07:44:08;;;;;;;;;;;;;;;25.47;68.86;99698.56;6106104;23;19921;-93
2023/07/07 07:46:40;;;;;;;;;;;;;;;25.59;69.24;99696.50;6081135;23;20251;-92
2023/07/07 07:49:06;;;;;;;;;;;;;;;25.60;68.14;99709.31;6081603;23;19928;-89
2023/07/07 07:51:32;;;;;;;;;;;;;;;25.67;67.25;99718.47;6052691;23;19925;-93
2023/07/07 07:53:58;;;;;;;;;;;;;;;25.67;68.05;99726.09;6053144;23;19999;-94
2023/07/07 07:56:25;;;;;;;;;;;;;;;25.73;67.98;99730.06;6052030;23;20371;-89
2023/07/07 07:59:01;;;;;;;;;;;;;;;25.55;67.85;99722.50;6055337;23;20676;-93
2023/07/07 08:01:27;;;;;;;;;;;;;;;25.51;68.43;99721.72;6102642;23;19922;-90
2023/07/07 08:03:54;;;;;;;;;;;;;;;25.54;68.53;99726.53;6078557;23;19921;-90
2023/07/07 08:06:20;;;;;;;;;;;;;;;25.47;69.55;99732.16;6113194;23;19931;-86
2023/07/07 08:08:46;;;;;;;;;;;;;;;25.49;69.54;99724.13;6131238;23;19952;-87
2023/07/07 08:11:13;;;;;;;;;;;;;;;25.39;70.28;99724.94;6077997;23;19933;-89
2023/07/07 08:13:39;;;;;;;;;;;;;;;25.41;70.48;99711.38;6111466;23;19931;-88
2023/07/07 08:16:08;;;;;;;;;;;;;;;25.43;70.41;99696.94;6147933;23;20301;-86
2023/07/07 08:18:34;;;;;;;;;;;;;;;25.44;70.08;99702.16;6165683;23;20618;-92
2023/07/07 08:21:00;;;;;;;;;;;;;;;25.45;69.86;99681.34;6191050;23;19927;-92
2023/07/07 08:23:26;;;;;;;;;;;;;;;25.46;69.43;99674.56;6160733;23;19971;-85
2023/07/07 08:25:52;;;;;;;;;;;;;;;25.41;68.93;99672.19;6193146;23;19924;-85
2023/07/07 08:28:18;;;;;;;;;;;;;;;25.31;69.00;99653.44;6210288;23;19908;-87
2023/07/07 08:30:44;;;;;;;;;;;;;;;25.24;69.64;99657.03;6205161;23;20235;-84
2023/07/07 08:33:10;;;;;;;;;;;;;;;25.22;69.42;99650.25;6202258;23;19927;-85
2023/07/07 08:35:36;;;;;;;;;;;;;;;25.25;68.95;99647.44;6201251;23;19920;-84
2023/07/07 08:38:01;;;;;;;;;;;;;;;25.29;68.41;99651.00;6199146;23;20004;-86
2023/07/07 08:40:38;;;;;;;;;;;;;;;25.39;69.15;99641.00;6193122;23;20239;-86
2023/07/07 08:43:05;;;;;;;;;;;;;;;25.39;67.88;99618.59;6192743;23;19942;-93
2023/07/07 08:45:45;;;;;;;;;;;;;;;25.50;68.49;99596.97;6204059;23;19966;-94
2023/07/07 08:49:20;;;;;;;;;;;;;;;25.57;67.60;99584.16;6204695;23;19927;-93
2023/07/07 08:51:26;;;;;;;;;;;;;;;25.75;67.58;99601.63;6135449;23;19968;-91
2023/07/07 08:54:00;;;;;;;;;;;;;;;25.81;66.65;99600.03;6146796;23;20138;-93
2023/07/07 08:56:28;;;;;;;;;;;;;;;25.96;66.58;99607.16;6148392;23;19920;-94
2023/07/07 08:59:13;;;;;;;;;;;;;;;25.99;66.18;99605.50;6176455;23;20258;-93
2023/07/07 09:02:13;;;;;;;;;;;;;;;25.97;65.40;99597.53;6115360;23;19924;-94
2023/07/07 09:04:39;;;;;;;;;;;;;;;26.10;66.04;99599.84;6026354;23;20012;-93
2023/07/07 09:07:45;;;;;;;;;;;;;;;;;;;;;
2023/07/07 09:10:55;;;;;;;;;;;;;;;26.10;65.01;99594.25;6053561;23;19937;-95
2023/07/07 09:13:46;;;;;;;;;;;;;;;26.08;65.88;99605.06;5966598;24;19923;-89
2023/07/07 09:16:15;;;;;;;;;;;;;;;26.08;65.58;99600.25;5963493;24;19923;-94
2023/07/07 09:18:52;;;;;;;;;;;;;;;26.00;65.74;99610.72;5964578;24;19930;-94
2023/07/07 09:22:03;;;;;;;;;;;;;;;25.84;66.05;99626.44;5955543;24;19933;-91
2023/07/07 09:24:57;;;;;;;;;;;;;;;25.78;66.86;99628.81;5966941;24;19930;-92
2023/07/07 09:32:02;;;;;;;;;;;;;;;;;;;;;
2023/07/07 09:35:20;;;;;;;;;;;;;;;25.98;68.02;99615.91;5966687;24;19911;-94
2023/07/07 09:38:11;;;;;;;;;;;;;;;26.01;67.19;99615.09;5965237;24;19919;-95
2023/07/07 09:40:49;;;;;;;;;;;;;;;26.11;67.36;99610.63;6039293;23;19969;-92
2023/07/07 09:43:25;;;;;;;;;;;;;;;26.25;67.56;99620.94;6098284;23;19920;-92
2023/07/07 09:53:23;;;;;;;;;;;;;;;26.75;65.50;99616.94;6264176;23;19950;-94
2023/07/07 09:55:56;;;;;;;;;;;;;;;26.83;64.60;99627.69;6215348;23;19903;-93
2023/07/07 10:02:35;;;;;;;;;;;;;;;27.30;63.87;99632.81;6253732;23;19942;-95
2023/07/07 10:05:50;;;;;;;;;;;;;;;27.55;61.48;99641.75;6095896;23;19928;-92
2023/07/07 10:08:17;;;;;;;;;;;;;;;27.72;59.80;99639.13;6118499;23;20008;-90
2023/07/07 10:10:52;;;;;;;;;;;;;;;27.76;59.68;99649.13;6106243;23;19921;-91
2023/07/07 10:13:28;;;;;;;;;;;;;;;27.89;59.60;99648.56;6058356;23;20576;-92
2023/07/07 10:16:05;;;;;;;;;;;;;;;28.00;59.28;99632.31;6087817;23;19909;-90
2023/07/07 10:18:36;;;;;;;;;;;;;;;28.17;59.01;99620.00;6089704;23;19929;-90
2023/07/07 10:21:06;;;;;;;;;;;;;;;28.16;55.61;99621.25;6064925;23;19933;-86
2023/07/07 10:23:33;;;;;;;;;;;;;;;28.17;56.69;99624.84;6086836;23;19922;-87
2023/07/07 10:26:35;;;;;;;;;;;;;;;28.24;56.81;99610.66;6066975;23;19925;-89
2023/07/07 10:32:56;;;;;;;;;;;;;;;28.44;54.33;99605.94;6089000;23;19925;-92
2023/07/07 10:42:00;;;;;;;;;;;;;;;28.33;55.34;99594.84;6221367;23;19924;-90
2023/07/07 10:44:58;;;;;;;;;;;;;;;28.27;55.65;99607.78;6194128;23;19927;-89
2023/07/07 10:51:12;;;;;;;;;;;;;;;27.90;57.00;99620.00;6213120;23;19904;-92
2023/07/07 11:00:45;;;;;;;;;;;;;;;27.38;56.29;99589.38;6157354;23;19927;-89
2023/07/07 11:04:27;;;;;;;;;;;;;;;27.36;57.00;99560.97;6184683;23;19956;-90
2023/07/07 11:07:29;;;;;;;;;;;;;;;27.47;57.11;99539.13;6182828;23;19925;-90
2023/07/07 11:14:13;;;;;;;;;;;;;;;27.67;57.40;99553.28;6066234;23;19906;-94
2023/07/07 11:17:24;;;;;;;;;;;;;;;27.71;55.61;99551.22;6016497;23;19994;-90
2023/07/07 11:26:34;;;;;;;;;;;;;;;28.02;52.68;99593.34;6208303;23;19916;-88
2023/07/07 11:29:11;;;;;;;;;;;;;;;28.43;51.46;99583.88;6212552;23;19924;-94
2023/07/07 11:34:37;;;;;;;;;;;;;;;28.54;51.76;99587.28;6202221;23;19924;-86
2023/07/07 11:37:22;;;;;;;;;;;;;;;28.55;52.91;99581.25;6170814;23;19924;-89
2023/07/07 11:40:08;;;;;;;;;;;;;;;28.53;53.92;99575.25;6199827;23;19920;-89
2023/07/07 11:42:52;;;;;;;;;;;;;;;28.49;54.04;99554.84;6170219;23;19920;-88
2023/07/07 11:45:49;;;;;;;;;;;;;;;28.48;55.11;99556.06;6142989;23;19920;-87
2023/07/07 11:48:33;;;;;;;;;;;;;;;28.38;56.04;99545.78;6139619;23;19916;-86
2023/07/07 11:51:11;;;;;;;;;;;;;;;28.32;56.47;99539.84;6133337;23;19943;-87
2023/07/07 11:53:37;;;;;;;;;;;;;;;28.29;57.66;99557.56;6089319;23;19992;-86
2023/07/07 11:56:27;;;;;;;;;;;;;;;28.19;57.18;99563.38;6109508;23;20007;-84
2023/07/07 12:01:59;;;;;;;;;;;;;;;28.03;58.61;99556.38;6129270;23;19947;-87
2023/07/07 12:04:39;;;;;;;;;;;;;;;27.99;57.57;99546.44;6129849;23;20342;-89
2023/07/07 12:07:18;;;;;;;;;;;;;;;27.94;58.77;99539.25;6155196;23;20731;-86
2023/07/07 12:09:49;;;;;;;;;;;;;;;27.80;58.33;99537.47;6154768;23;20346;-86
2023/07/07 12:12:19;;;;;;;;;;;;;;;27.76;59.77;99533.13;6117929;23;19900;-86
2023/07/07 12:14:52;;;;;;;;;;;;;;;27.70;60.08;99541.22;6155081;23;19924;-87
2023/07/07 12:17:28;;;;;;;;;;;;;;;27.67;60.86;99542.06;6152454;23;19968;-90
2023/07/07 12:19:57;;;;;;;;;;;;;;;27.64;61.06;99532.47;6126544;23;19905;-88
2023/07/07 12:22:26;;;;;;;;;;;;;;;27.59;62.01;99527.34;6152992;23;19924;-88
2023/07/07 12:25:21;;;;;;;;;;;;;;;27.59;62.40;99538.56;6106723;23;19921;-88
2023/07/07 12:27:51;;;;;;;;;;;;;;;27.58;62.87;99538.97;6107707;23;19921;-88
2023/07/07 12:30:20;;;;;;;;;;;;;;;27.57;63.44;99532.56;6112142;23;20004;-88
2023/07/07 12:32:46;;;;;;;;;;;;;;;27.52;62.97;99532.28;6106502;23;19957;-87
2023/07/07 12:35:19;;;;;;;;;;;;;;;27.51;62.81;99520.22;6080300;23;20391;-89
2023/07/07 12:40:34;;;;;;;;;;;;;;;27.60;63.22;99522.50;6218373;23;19924;-90
2023/07/07 12:43:15;;;;;;;;;;;;;;;27.72;62.31;99507.88;6202465;23;19943;-87
2023/07/07 12:45:42;;;;;;;;;;;;;;;28.04;61.02;99509.41;6202320;23;19952;-86
2023/07/07 12:48:21;;;;;;;;;;;;;;;28.36;61.19;99505.25;6225390;23;19926;-90
2023/07/07 12:50:48;;;;;;;;;;;;;;;28.77;59.68;99500.06;6198799;23;19927;-87
2023/07/07 12:53:33;;;;;;;;;;;;;;;29.11;56.55;99487.72;6169340;23;19951;-88
2023/07/07 12:56:00;;;;;;;;;;;;;;;29.47;55.33;99493.38;6169190;23;19951;-88
2023/07/07 12:58:31;;;;;;;;;;;;;;;29.85;54.46;99494.91;6168331;23;19916;-88
2023/07/07 13:01:09;;;;;;;;;;;;;;;30.19;52.55;99481.16;6201632;23;19924;-90
2023/07/07 13:03:54;;;;;;;;;;;;;;;30.49;53.13;99489.66;6149923;23;19954;-88
2023/07/07 13:06:24;;;;;;;;;;;;;;;30.28;53.26;99486.19;6191336;23;19915;-89
2023/07/07 13:09:10;;;;;;;;;;;;;;;30.41;53.72;99480.63;6189305;23;19924;-88
2023/07/07 13:14:50;;;;;;;;;;;;;;;30.77;51.68;99479.66;6086569;23;19930;-91
2023/07/07 13:21:00;;;;;;;;;;;;;;;30.96;50.82;99467.41;5988920;24;19927;-91
2023/07/07 13:23:47;;;;;;;;;;;;;;;30.72;50.03;99475.31;5987296;24;19932;-90
2023/07/07 13:26:27;;;;;;;;;;;;;;;30.50;49.97;99463.03;5983044;24;19970;-93
2023/07/07 13:29:03;;;;;;;;;;;;;;;30.54;50.97;99458.88;5960480;24;19922;-86
2023/07/07 13:31:29;;;;;;;;;;;;;;;30.29;50.31;99456.75;5956456;24;19951;-87
2023/07/07 13:33:55;;;;;;;;;;;;;;;30.12;51.45;99461.59;5987781;24;19922;-86
2023/07/07 13:36:23;;;;;;;;;;;;;;;30.08;51.49;99454.47;5983675;24;19923;-88
2023/07/07 13:38:49;;;;;;;;;;;;;;;30.01;50.38;99463.13;5962210;24;19922;-90
2023/07/07 13:41:19;;;;;;;;;;;;;;;29.68;51.70;99461.09;5953374;24;20460;-86
2023/07/07 13:43:52;;;;;;;;;;;;;;;29.36;52.02;99456.19;5987311;24;20448;-88
2023/07/07 13:46:30;;;;;;;;;;;;;;;29.14;52.87;99443.81;5957260;24;19922;-92
2023/07/07 13:49:01;;;;;;;;;;;;;;;29.09;54.72;99447.97;5959192;24;19922;-86
2023/07/07 13:51:29;;;;;;;;;;;;;;;28.85;53.99;99452.09;5975097;24;20403;-88
2023/07/07 13:53:55;;;;;;;;;;;;;;;28.77;54.94;99455.06;5957715;24;19922;-89
2023/07/07 13:56:22;;;;;;;;;;;;;;;28.64;54.92;99459.72;5981338;23;19930;-92
2023/07/07 13:58:49;;;;;;;;;;;;;;;28.51;55.15;99456.78;6092334;23;19922;-93
2023/07/07 14:01:18;;;;;;;;;;;;;;;28.43;56.29;99446.09;6087757;23;19997;-87
2023/07/07 14:03:46;;;;;;;;;;;;;;;28.26;56.14;99443.16;6067829;23;19922;-88
2023/07/07 14:06:14;;;;;;;;;;;;;;;28.09;55.82;99433.03;6090207;23;19965;-88
2023/07/07 14:08:41;;;;;;;;;;;;;;;28.03;56.68;99446.00;6078720;23;19976;-94
2023/07/07 14:14:22;;;;;;;;;;;;;;;27.78;57.87;99461.28;6158974;23;19924;-91
2023/07/07 14:17:02;;;;;;;;;;;;;;;27.77;57.65;99454.06;6079755;23;19975;-92
2023/07/07 14:19:39;;;;;;;;;;;;;;;27.71;58.72;99429.66;6109135;23;19924;-90
2023/07/07 14:22:06;;;;;;;;;;;;;;;27.64;58.62;99416.53;6107663;23;19928;-89
2023/07/07 14:24:35;;;;;;;;;;;;;;;27.56;58.90;99426.28;6134279;23;19905;-87
2023/07/07 14:27:02;;;;;;;;;;;;;;;27.43;59.23;99419.69;6155480;23;20362;-91
2023/07/07 14:29:37;;;;;;;;;;;;;;;27.34;60.72;99432.22;6086778;23;19929;-87
2023/07/07 14:32:06;;;;;;;;;;;;;;;27.21;62.77;99433.25;6121629;23;19932;-90
2023/07/07 14:34:46;;;;;;;;;;;;;;;27.11;63.98;99440.56;6131593;23;19921;-90
2023/07/07 14:37:23;;;;;;;;;;;;;;;26.94;64.28;99448.78;6078443;23;19924;-90
2023/07/07 14:43:19;;;;;;;;;;;;;;;26.77;65.72;99455.44;6032892;23;19926;-88
2023/07/07 14:45:51;;;;;;;;;;;;;;;26.63;66.58;99464.81;6038585;23;19922;-85
2023/07/07 14:48:21;;;;;;;;;;;;;;;26.56;68.46;99470.50;6013851;23;20307;-91
2023/07/07 14:50:47;;;;;;;;;;;;;;;26.37;68.52;99476.69;6038333;23;19925;-88
2023/07/07 14:53:17;;;;;;;;;;;;;;;26.31;69.51;99470.75;6060225;23;19921;-90
2023/07/07 14:59:16;;;;;;;;;;;;;;;26.10;68.75;99451.34;6013090;23;19928;-90
2023/07/07 15:01:46;;;;;;;;;;;;;;;26.05;68.08;99449.78;5952585;23;19926;-94
2023/07/07 15:11:11;;;;;;;;;;;;;;;25.91;72.12;99456.31;5920696;24;20149;-86
2023/07/07 15:13:37;;;;;;;;;;;;;;;25.83;70.51;99446.41;5943663;24;19930;-87
2023/07/07 15:16:06;;;;;;;;;;;;;;;25.80;71.17;99452.81;5973640;24;19930;-88
2023/07/07 15:18:34;;;;;;;;;;;;;;;25.75;71.85;99444.81;5969199;24;19923;-90
2023/07/07 15:21:00;;;;;;;;;;;;;;;25.68;72.21;99428.88;5950405;24;19994;-92
2023/07/07 15:23:25;;;;;;;;;;;;;;;25.65;73.88;99418.50;5922742;24;20017;-87
2023/07/07 15:25:51;;;;;;;;;;;;;;;25.54;73.97;99418.59;5922298;24;19922;-86
2023/07/07 15:28:18;;;;;;;;;;;;;;;25.42;74.09;99423.88;5945021;24;20532;-86
2023/07/07 15:30:45;;;;;;;;;;;;;;;25.36;74.62;99436.72;5951261;24;19997;-88
2023/07/07 15:33:13;;;;;;;;;;;;;;;25.33;74.67;99476.72;5918039;24;19922;-89
2023/07/07 15:35:39;;;;;;;;;;;;;;;25.28;75.34;99484.31;5978810;23;19929;-85
2023/07/07 15:38:23;;;;;;;;;;;;;;;25.27;76.01;99482.75;6030175;23;20245;-89
2023/07/07 15:40:56;;;;;;;;;;;;;;;25.11;75.40;99496.38;6056926;23;20352;-91
2023/07/07 15:43:30;;;;;;;;;;;;;;;25.09;75.55;99499.59;6023766;23;19942;-94
2023/07/07 15:46:11;;;;;;;;;;;;;;;25.06;76.24;99497.59;6155279;23;19908;-89
2023/07/07 15:48:37;;;;;;;;;;;;;;;25.05;76.32;99496.00;6151838;23;20464;-88